createdAt,value
2019-06-20T00:00:44.684Z,17.59
2019-06-20T00:01:44.694Z,17.66
2019-06-20T00:02:44.653Z,17.66
2019-06-20T00:03:44.637Z,17.68
2019-06-20T00:04:44.621Z,17.63
2019-06-20T00:05:44.618Z,17.68
2019-06-20T00:06:44.613Z,17.72
2019-06-20T00:07:44.580Z,17.68
2019-06-20T00:08:44.569Z,17.56
2019-06-20T00:09:44.597Z,17.54
2019-06-20T00:10:44.545Z,17.51
2019-06-20T00:11:44.515Z,17.49
2019-06-20T00:12:59.198Z,17.51
2019-06-20T00:13:44.477Z,17.64
2019-06-20T00:14:44.460Z,17.58
2019-06-20T00:15:44.599Z,17.55
2019-06-20T00:16:44.429Z,17.44
2019-06-20T00:17:44.412Z,17.52
2019-06-20T00:18:44.400Z,17.52
2019-06-20T00:19:44.381Z,17.46
2019-06-20T00:20:44.380Z,17.58
2019-06-20T00:21:44.349Z,17.51
2019-06-20T00:22:44.331Z,17.48
2019-06-20T00:23:44.317Z,17.40
2019-06-20T00:24:44.299Z,17.46
2019-06-20T00:25:44.311Z,17.46
2019-06-20T00:26:44.323Z,17.49
2019-06-20T00:27:44.250Z,17.49
2019-06-20T00:28:44.245Z,17.51
2019-06-20T00:29:44.222Z,17.52
2019-06-20T00:30:44.222Z,17.64
2019-06-20T00:31:44.200Z,17.49
2019-06-20T00:32:44.172Z,17.48
2019-06-20T00:33:44.156Z,17.49
2019-06-20T00:34:44.140Z,17.46
2019-06-20T00:35:44.124Z,17.51
2019-06-20T00:36:44.139Z,17.63
2019-06-20T00:37:44.093Z,17.62
2019-06-20T00:38:44.076Z,17.46
2019-06-20T00:39:44.065Z,17.41
2019-06-20T00:40:44.048Z,17.46
2019-06-20T00:41:44.042Z,17.41
2019-06-20T00:42:44.010Z,17.43
2019-06-20T00:43:43.999Z,17.44
2019-06-20T00:44:44.035Z,17.41
2019-06-20T00:45:43.970Z,17.38
2019-06-20T00:46:43.959Z,17.31
2019-06-20T00:47:43.933Z,17.28
2019-06-20T00:48:43.917Z,17.23
2019-06-20T00:49:43.904Z,17.31
2019-06-20T00:50:43.894Z,17.30
2019-06-20T00:51:43.881Z,17.31
2019-06-20T00:52:43.855Z,17.23
2019-06-20T00:53:43.846Z,17.31
2019-06-20T00:54:43.831Z,17.25
2019-06-20T00:55:43.806Z,17.26
2019-06-20T00:56:43.807Z,17.11
2019-06-20T00:57:43.770Z,17.15
2019-06-20T00:58:43.754Z,17.11
2019-06-20T00:59:43.740Z,17.15
2019-06-20T01:00:43.723Z,17.14
2019-06-20T01:01:43.716Z,17.15
2019-06-20T01:02:43.704Z,17.19
2019-06-20T01:03:43.676Z,17.12
2019-06-20T01:04:43.663Z,17.22
2019-06-20T01:05:43.644Z,17.16
2019-06-20T01:06:43.642Z,17.26
2019-06-20T01:07:43.614Z,17.22
2019-06-20T01:08:43.595Z,17.31
2019-06-20T01:09:43.582Z,17.31
2019-06-20T01:10:43.564Z,17.34
2019-06-20T01:11:43.562Z,17.34
2019-06-20T01:12:43.532Z,17.23
2019-06-20T01:13:43.519Z,17.38
2019-06-20T01:14:43.504Z,17.34
2019-06-20T01:15:43.485Z,17.38
2019-06-20T01:16:43.606Z,17.51
2019-06-20T05:28:13.374Z,19.59
2019-06-20T05:29:13.337Z,19.54
2019-06-20T05:30:13.308Z,19.62
2019-06-20T05:31:13.304Z,19.73
2019-06-20T05:32:13.270Z,19.69
2019-06-20T05:33:13.253Z,19.71
2019-06-20T05:34:13.238Z,19.76
2019-06-20T05:35:13.224Z,19.73
2019-06-20T05:36:13.203Z,19.59
2019-06-20T05:37:13.208Z,19.54
2019-06-20T05:38:13.183Z,19.56
2019-06-20T05:39:13.155Z,19.65
2019-06-20T05:40:13.140Z,19.62
2019-06-20T05:41:13.198Z,19.68
2019-06-20T05:42:13.123Z,19.66
2019-06-20T05:43:13.093Z,19.69
2019-06-20T05:44:13.084Z,19.59
2019-06-20T05:45:13.064Z,19.51
2019-06-20T05:46:13.051Z,19.54
2019-06-20T05:47:14.081Z,19.43
2019-06-20T06:47:13.115Z,19.46
2019-06-20T06:48:13.098Z,19.58
2019-06-20T06:49:13.082Z,19.58
2019-06-20T06:50:13.049Z,19.54
2019-06-20T06:51:13.031Z,19.59
2019-06-20T06:52:13.017Z,19.71
2019-06-20T06:53:12.996Z,19.68
2019-06-20T06:54:13.033Z,19.80
2019-06-20T06:55:12.968Z,19.98
2019-06-20T06:56:12.952Z,20.02
2019-06-20T06:57:12.961Z,20.14
2019-06-20T06:58:12.919Z,20.41
2019-06-20T06:59:12.953Z,20.61
2019-06-20T07:00:12.900Z,21.04
2019-06-20T07:01:12.901Z,21.75
2019-06-20T07:02:12.857Z,21.75
2019-06-20T07:03:12.841Z,21.75
2019-06-20T07:04:12.825Z,21.61
2019-06-20T07:05:12.825Z,22.45
2019-06-20T07:06:12.797Z,22.17
2019-06-20T07:07:12.802Z,22.94
2019-06-20T07:08:12.766Z,22.77
2019-06-20T07:09:12.756Z,22.20
2019-06-20T07:10:12.767Z,22.72
2019-06-20T07:11:12.726Z,22.85
2019-06-20T07:12:12.713Z,22.55
2019-06-20T07:13:12.700Z,21.74
2019-06-20T07:14:12.685Z,21.53
2019-06-20T07:15:12.745Z,21.98
2019-06-20T07:16:12.658Z,22.82
2019-06-20T07:17:12.646Z,23.31
2019-06-20T07:18:12.633Z,23.75
2019-06-20T07:19:12.669Z,23.80
2019-06-20T07:20:15.183Z,23.05
2019-06-20T07:21:12.594Z,23.19
2019-06-20T07:22:12.581Z,23.32
2019-06-20T07:23:12.584Z,23.63
2019-06-20T07:24:12.557Z,23.69
2019-06-20T07:25:12.538Z,23.88
2019-06-20T07:26:12.546Z,23.69
2019-06-20T07:27:12.521Z,23.60
2019-06-20T07:28:12.516Z,23.68
2019-06-20T07:29:12.491Z,23.63
2019-06-20T07:30:12.481Z,24.15
2019-06-20T07:31:12.481Z,23.68
2019-06-20T07:32:12.456Z,23.73
2019-06-20T07:33:12.484Z,22.97
2019-06-20T07:34:12.432Z,22.42
2019-06-20T07:35:12.420Z,21.69
2019-06-20T07:36:12.430Z,21.28
2019-06-20T07:37:12.408Z,21.25
2019-06-20T07:38:12.382Z,21.42
2019-06-20T07:39:12.369Z,21.56
2019-06-20T07:40:12.357Z,21.74
2019-06-20T07:41:12.359Z,21.59
2019-06-20T07:42:12.333Z,21.68
2019-06-20T07:43:12.321Z,21.68
2019-06-20T07:44:12.310Z,21.61
2019-06-20T07:45:12.298Z,21.40
2019-06-20T07:46:12.328Z,21.37
2019-06-20T07:47:17.583Z,21.27
2019-06-20T07:48:12.256Z,21.25
2019-06-20T07:49:12.269Z,21.17
2019-06-20T07:50:12.234Z,21.17
2019-06-20T07:51:12.235Z,21.04
2019-06-20T07:52:12.206Z,20.91
2019-06-20T07:53:12.196Z,20.95
2019-06-20T07:54:12.183Z,20.92
2019-06-20T07:55:12.176Z,20.88
2019-06-20T07:56:12.169Z,21.03
2019-06-20T07:57:12.146Z,21.27
2019-06-20T07:58:12.130Z,21.29
2019-06-20T07:59:12.130Z,21.46
2019-06-20T08:00:12.113Z,21.43
2019-06-20T08:01:12.107Z,21.56
2019-06-20T08:02:12.079Z,21.83
2019-06-20T08:03:12.065Z,21.91
2019-06-20T08:04:12.053Z,21.96
2019-06-20T08:05:12.047Z,21.91
2019-06-20T08:06:12.039Z,21.83
2019-06-20T08:07:12.016Z,21.88
2019-06-20T08:08:12.048Z,22.33
2019-06-20T08:09:11.990Z,22.57
2019-06-20T08:10:11.999Z,22.86
2019-06-20T08:11:11.977Z,22.68
2019-06-20T08:12:11.956Z,22.75
2019-06-20T08:13:12.095Z,22.57
2019-06-20T08:14:11.924Z,22.60
2019-06-20T08:15:15.445Z,22.64
2019-06-20T08:16:11.918Z,22.65
2019-06-20T08:17:11.888Z,22.42
2019-06-20T08:18:11.893Z,22.60
2019-06-20T08:19:11.863Z,22.76
2019-06-20T08:20:11.938Z,22.73
2019-06-20T08:21:11.839Z,22.92
2019-06-20T08:22:11.845Z,23.13
2019-06-20T08:23:11.815Z,23.13
2019-06-20T08:24:11.804Z,22.77
2019-06-20T08:25:11.799Z,22.62
2019-06-20T08:26:11.776Z,22.07
2019-06-20T08:27:14.778Z,21.80
2019-06-20T08:28:11.755Z,21.98
2019-06-20T08:29:20.631Z,22.21
2019-06-20T08:30:11.729Z,22.46
2019-06-20T08:31:11.719Z,22.62
2019-06-20T08:32:11.724Z,22.58
2019-06-20T08:33:12.383Z,22.40
2019-06-20T08:34:11.683Z,22.39
2019-06-20T08:35:11.670Z,22.43
2019-06-20T08:36:11.670Z,22.79
2019-06-20T08:37:11.647Z,22.75
2019-06-20T08:38:11.644Z,22.82
2019-06-20T08:39:11.619Z,22.90
2019-06-20T08:40:11.605Z,23.10
2019-06-20T08:41:11.595Z,23.01
2019-06-20T08:42:11.592Z,23.33
2019-06-20T08:43:11.585Z,23.23
2019-06-20T08:44:11.560Z,23.35
2019-06-20T08:45:11.547Z,23.23
2019-06-20T08:46:11.537Z,23.36
2019-06-20T08:47:11.523Z,23.17
2019-06-20T08:48:11.526Z,23.19
2019-06-20T08:49:11.502Z,23.00
2019-06-20T08:50:11.497Z,23.16
2019-06-20T08:51:14.482Z,23.19
2019-06-20T08:52:11.466Z,23.16
2019-06-20T08:53:11.473Z,23.01
2019-06-20T08:54:11.441Z,22.97
2019-06-20T08:55:11.429Z,23.09
2019-06-20T08:56:11.419Z,23.07
2019-06-20T08:57:11.414Z,23.36
2019-06-20T08:58:11.407Z,23.38
2019-06-20T08:59:23.898Z,23.22
2019-06-20T09:00:11.370Z,23.12
2019-06-20T09:01:11.365Z,23.01
2019-06-20T09:02:11.346Z,22.90
2019-06-20T09:03:11.349Z,22.83
2019-06-20T09:04:11.323Z,22.58
2019-06-20T09:05:11.313Z,22.45
2019-06-20T09:06:11.298Z,22.43
2019-06-20T09:07:11.299Z,22.55
2019-06-20T09:08:11.999Z,22.62
2019-06-20T09:09:11.267Z,22.42
2019-06-20T09:10:11.253Z,22.31
2019-06-20T09:11:11.239Z,22.31
2019-06-20T09:12:11.227Z,22.52
2019-06-20T09:13:11.227Z,22.72
2019-06-20T09:14:11.202Z,22.80
2019-06-20T09:15:11.190Z,22.97
2019-06-20T09:16:23.985Z,23.12
2019-06-20T09:17:11.166Z,23.28
2019-06-20T09:18:11.168Z,23.16
2019-06-20T09:19:11.149Z,23.38
2019-06-20T09:20:11.140Z,23.25
2019-06-20T09:21:11.134Z,23.39
2019-06-20T09:22:11.105Z,23.35
2019-06-20T09:23:11.162Z,23.43
2019-06-20T09:24:11.082Z,23.38
2019-06-20T09:25:11.069Z,23.35
2019-06-20T09:26:11.058Z,23.55
2019-06-20T09:27:11.045Z,23.43
2019-06-20T09:28:11.033Z,23.35
2019-06-20T09:29:11.041Z,23.27
2019-06-20T09:30:11.013Z,23.22
2019-06-20T09:31:10.999Z,23.33
2019-06-20T09:32:10.987Z,23.36
2019-06-20T09:33:10.989Z,23.47
2019-06-20T09:34:10.979Z,23.65
2019-06-20T09:35:10.952Z,23.60
2019-06-20T09:36:10.944Z,23.58
2019-06-20T09:37:10.930Z,23.75
2019-06-20T09:38:10.921Z,23.90
2019-06-20T09:39:10.921Z,23.60
2019-06-20T09:40:10.897Z,23.70
2019-06-20T09:41:10.881Z,23.60
2019-06-20T09:42:10.873Z,23.75
2019-06-20T09:43:10.858Z,23.93
2019-06-20T09:44:10.868Z,23.75
2019-06-20T09:45:10.835Z,23.60
2019-06-20T09:46:10.827Z,23.47
2019-06-20T09:47:10.814Z,23.31
2019-06-20T09:48:10.802Z,23.27
2019-06-20T09:49:10.800Z,23.65
2019-06-20T09:50:10.778Z,23.91
2019-06-20T09:51:10.766Z,23.97
2019-06-20T09:52:10.789Z,23.91
2019-06-20T09:53:10.742Z,23.75
2019-06-20T09:54:10.748Z,23.57
2019-06-20T09:55:10.726Z,23.42
2019-06-20T09:56:10.731Z,23.40
2019-06-20T09:57:10.698Z,23.65
2019-06-20T09:58:10.701Z,23.75
2019-06-20T09:59:26.647Z,23.70
2019-06-20T10:00:11.044Z,23.72
2019-06-20T10:01:10.653Z,23.83
2019-06-20T10:02:10.642Z,23.91
2019-06-20T10:03:10.631Z,24.05
2019-06-20T10:04:10.636Z,23.88
2019-06-20T10:05:10.696Z,23.84
2019-06-20T10:06:13.877Z,23.80
2019-06-20T10:07:10.600Z,23.94
2019-06-20T10:08:10.570Z,23.75
2019-06-20T10:09:10.602Z,23.80
2019-06-20T10:10:10.588Z,23.58
2019-06-20T10:11:10.538Z,23.57
2019-06-20T10:12:10.525Z,23.60
2019-06-20T10:13:10.517Z,23.60
2019-06-20T10:14:10.515Z,23.57
2019-06-20T10:15:10.507Z,23.65
2019-06-20T10:16:10.483Z,23.70
2019-06-20T10:17:10.470Z,23.58
2019-06-20T10:18:10.459Z,23.38
2019-06-20T10:19:12.679Z,23.36
2019-06-20T10:20:10.450Z,23.42
2019-06-20T10:21:10.424Z,23.43
2019-06-20T10:22:10.416Z,23.27
2019-06-20T10:23:10.402Z,23.27
2019-06-20T10:24:10.389Z,23.28
2019-06-20T10:25:10.391Z,23.43
2019-06-20T10:26:10.368Z,23.27
2019-06-20T10:27:10.354Z,23.20
2019-06-20T10:28:10.343Z,23.15
2019-06-20T10:29:10.332Z,23.13
2019-06-20T10:30:14.203Z,22.98
2019-06-20T10:31:10.308Z,22.92
2019-06-20T10:32:10.296Z,22.83
2019-06-20T10:33:10.282Z,22.97
2019-06-20T10:34:10.277Z,22.83
2019-06-20T10:35:10.279Z,22.61
2019-06-20T10:36:10.246Z,22.57
2019-06-20T10:37:10.237Z,22.76
2019-06-20T10:38:10.229Z,22.64
2019-06-20T10:39:10.216Z,22.98
2019-06-20T10:40:10.223Z,23.25
2019-06-20T10:41:10.186Z,23.36
2019-06-20T10:42:10.176Z,23.66
2019-06-20T10:43:10.164Z,23.95
2019-06-20T10:44:10.149Z,24.03
2019-06-20T10:45:10.168Z,23.85
2019-06-20T10:46:10.126Z,24.13
2019-06-20T10:47:10.258Z,24.25
2019-06-20T10:48:10.103Z,24.31
2019-06-20T10:49:10.096Z,24.22
2019-06-20T10:50:10.088Z,24.49
2019-06-20T10:51:10.084Z,24.68
2019-06-20T10:52:10.057Z,24.45
2019-06-20T10:53:10.081Z,24.45
2019-06-20T10:54:10.034Z,24.21
2019-06-20T10:55:10.042Z,24.57
2019-06-20T10:56:10.029Z,24.76
2019-06-20T10:57:09.997Z,25.05
2019-06-20T10:58:09.987Z,25.39
2019-06-20T10:59:09.976Z,25.13
2019-06-20T11:00:09.966Z,24.76
2019-06-20T11:01:09.967Z,24.53
2019-06-20T11:02:09.946Z,25.03
2019-06-20T11:03:09.943Z,24.47
2019-06-20T11:04:09.927Z,23.95
2019-06-20T11:05:09.912Z,24.12
2019-06-20T11:06:09.917Z,23.97
2019-06-20T11:07:09.889Z,23.91
2019-06-20T11:08:09.879Z,24.09
2019-06-20T11:09:09.871Z,24.09
2019-06-20T11:10:09.859Z,24.31
2019-06-20T11:11:09.860Z,24.35
2019-06-20T11:12:09.834Z,24.31
2019-06-20T11:13:09.823Z,24.31
2019-06-20T11:14:09.812Z,24.35
2019-06-20T11:15:09.805Z,23.93
2019-06-20T11:16:09.808Z,23.33
2019-06-20T11:17:09.785Z,23.36
2019-06-20T11:18:09.770Z,23.28
2019-06-20T11:19:09.759Z,23.48
2019-06-20T11:20:09.747Z,23.47
2019-06-20T11:21:09.735Z,23.63
2019-06-20T11:22:09.740Z,23.58
2019-06-20T11:23:09.714Z,23.63
2019-06-20T11:24:09.708Z,23.79
2019-06-20T11:25:09.693Z,24.20
2019-06-20T11:26:09.686Z,24.65
2019-06-20T11:27:09.684Z,25.08
2019-06-20T11:28:09.665Z,25.69
2019-06-20T11:29:09.647Z,25.73
2019-06-20T11:30:09.639Z,26.10
2019-06-20T11:31:09.627Z,26.29
2019-06-20T11:32:09.628Z,25.67
2019-06-20T11:33:09.604Z,25.94
2019-06-20T11:34:09.613Z,25.92
2019-06-20T11:35:09.589Z,25.80
2019-06-20T11:36:09.573Z,25.69
2019-06-20T11:37:09.578Z,25.50
2019-06-20T11:38:09.553Z,25.45
2019-06-20T11:39:09.548Z,25.35
2019-06-20T11:40:09.533Z,25.20
2019-06-20T11:41:09.557Z,25.35
2019-06-20T11:42:09.520Z,25.58
2019-06-20T11:43:09.508Z,25.27
2019-06-20T11:44:09.489Z,25.45
2019-06-20T11:45:09.485Z,25.33
2019-06-20T11:46:09.471Z,24.73
2019-06-20T11:47:09.475Z,24.69
2019-06-20T11:48:09.449Z,24.65
2019-06-20T11:49:09.440Z,24.53
2019-06-20T11:50:09.428Z,24.53
2019-06-20T11:51:09.419Z,24.52
2019-06-20T11:52:09.438Z,24.55
2019-06-20T11:53:09.398Z,24.64
2019-06-20T11:54:09.386Z,24.46
2019-06-20T11:55:09.379Z,24.06
2019-06-20T11:56:09.459Z,23.72
2019-06-20T11:57:09.375Z,23.53
2019-06-20T11:58:09.347Z,23.51
2019-06-20T11:59:09.338Z,23.47
2019-06-20T12:00:09.323Z,23.43
2019-06-20T12:01:09.314Z,23.47
2019-06-20T12:02:09.319Z,23.51
2019-06-20T12:03:09.290Z,23.46
2019-06-20T12:04:09.549Z,23.54
2019-06-20T12:05:09.270Z,23.51
2019-06-20T12:06:09.274Z,23.53
2019-06-20T12:07:09.298Z,23.73
2019-06-20T12:08:09.321Z,23.68
2019-06-20T12:09:09.228Z,23.69
2019-06-20T12:10:09.213Z,23.57
2019-06-20T12:11:09.202Z,23.42
2019-06-20T12:12:09.212Z,23.13
2019-06-20T12:13:09.188Z,22.73
2019-06-20T12:14:09.173Z,22.35
2019-06-20T12:15:09.157Z,22.22
2019-06-20T12:16:09.146Z,21.67
2019-06-20T12:17:09.146Z,20.99
2019-06-20T12:18:09.125Z,20.50
2019-06-20T12:19:09.109Z,20.28
2019-06-20T12:20:09.099Z,20.32
2019-06-20T12:21:09.087Z,20.13
2019-06-20T12:22:09.085Z,20.03
2019-06-20T12:23:09.060Z,20.08
2019-06-20T12:24:09.047Z,20.28
2019-06-20T12:25:09.037Z,20.43
2019-06-20T12:26:09.041Z,20.55
2019-06-20T12:27:09.027Z,20.88
2019-06-20T12:28:09.015Z,20.98
2019-06-20T12:29:08.987Z,21.25
2019-06-20T12:30:08.977Z,21.46
2019-06-20T12:31:19.047Z,21.99
2019-06-20T12:32:10.062Z,22.00
2019-06-20T12:33:08.935Z,22.30
2019-06-20T12:34:08.923Z,22.45
2019-06-20T12:35:08.914Z,22.21
2019-06-20T12:36:08.903Z,22.37
2019-06-20T12:37:08.885Z,22.57
2019-06-20T12:38:08.909Z,22.54
2019-06-20T12:39:08.867Z,22.60
2019-06-20T12:40:08.845Z,22.75
2019-06-20T12:41:08.838Z,22.75
2019-06-20T12:42:08.822Z,22.86
2019-06-20T12:43:08.836Z,23.09
2019-06-20T12:44:08.808Z,23.15
2019-06-20T12:45:08.787Z,22.94
2019-06-20T12:46:08.773Z,22.73
2019-06-20T12:47:08.769Z,22.65
2019-06-20T12:48:08.828Z,22.75
2019-06-20T12:49:08.739Z,22.61
2019-06-20T12:50:08.723Z,22.72
2019-06-20T12:51:08.712Z,22.58
2019-06-20T12:52:08.700Z,22.58
2019-06-20T12:53:08.701Z,22.52
2019-06-20T12:54:08.674Z,22.45
2019-06-20T12:55:08.665Z,22.43
2019-06-20T12:56:08.655Z,22.30
2019-06-20T12:57:08.640Z,22.42
2019-06-20T12:58:08.649Z,22.31
2019-06-20T12:59:08.620Z,22.40
2019-06-20T13:00:08.605Z,22.22
2019-06-20T13:01:08.608Z,22.25
2019-06-20T13:02:08.578Z,22.36
2019-06-20T13:03:08.587Z,22.40
2019-06-20T13:04:08.559Z,22.42
2019-06-20T13:05:08.543Z,22.45
2019-06-20T13:06:08.531Z,22.43
2019-06-20T13:07:08.517Z,22.46
2019-06-20T13:08:08.520Z,22.55
2019-06-20T13:09:08.499Z,22.60
2019-06-20T13:10:08.488Z,22.55
2019-06-20T13:11:08.478Z,22.67
2019-06-20T13:12:08.460Z,22.77
2019-06-20T13:13:08.466Z,22.80
2019-06-20T13:14:08.443Z,22.86
2019-06-20T13:15:08.420Z,23.01
2019-06-20T13:16:08.431Z,22.73
2019-06-20T13:17:08.397Z,22.46
2019-06-20T13:18:08.392Z,22.46
2019-06-20T13:19:08.388Z,22.31
2019-06-20T13:20:08.361Z,22.21
2019-06-20T13:21:08.384Z,21.99
2019-06-20T13:22:08.340Z,21.96
2019-06-20T13:23:08.330Z,21.82
2019-06-20T13:24:08.342Z,21.71
2019-06-20T13:25:08.311Z,21.52
2019-06-20T13:26:08.287Z,21.42
2019-06-20T13:27:08.286Z,21.19
2019-06-20T13:28:08.263Z,21.17
2019-06-20T13:29:08.299Z,21.12
2019-06-20T13:30:08.270Z,21.10
2019-06-20T13:31:08.239Z,21.09
2019-06-20T13:32:08.217Z,21.13
2019-06-20T13:33:08.202Z,21.09
2019-06-20T13:34:08.209Z,20.99
2019-06-20T13:35:08.184Z,21.12
2019-06-20T13:36:08.178Z,21.09
2019-06-20T13:37:08.166Z,20.99
2019-06-20T13:38:08.140Z,20.89
2019-06-20T13:39:08.141Z,20.89
2019-06-20T13:40:08.118Z,20.43
2019-06-20T13:41:08.101Z,20.14
2019-06-20T13:42:08.092Z,19.99
2019-06-20T13:43:08.078Z,19.81
2019-06-20T13:44:08.076Z,19.78
2019-06-20T13:45:08.051Z,19.66
2019-06-20T13:46:08.037Z,19.56
2019-06-20T13:47:08.023Z,19.50
2019-06-20T13:48:08.007Z,19.43
2019-06-20T13:49:08.008Z,19.29
2019-06-20T13:50:07.984Z,19.06
2019-06-20T13:51:07.968Z,19.10
2019-06-20T13:52:07.980Z,19.19
2019-06-20T13:53:07.940Z,19.32
2019-06-20T13:54:07.948Z,19.29
2019-06-20T13:55:07.916Z,19.36
2019-06-20T13:56:07.900Z,19.54
2019-06-20T13:57:07.887Z,19.48
2019-06-20T13:58:07.874Z,19.56
2019-06-20T13:59:10.127Z,19.31
2019-06-20T14:00:07.844Z,19.43
2019-06-20T14:01:07.831Z,19.77
2019-06-20T14:02:07.821Z,19.65
2019-06-20T14:03:07.807Z,19.63
2019-06-20T14:04:07.807Z,19.66
2019-06-20T14:05:07.778Z,19.98
2019-06-20T14:06:07.769Z,20.20
2019-06-20T14:07:07.752Z,20.38
2019-06-20T14:08:07.737Z,20.50
2019-06-20T14:09:07.749Z,20.73
2019-06-20T14:10:07.745Z,21.12
2019-06-20T14:11:07.697Z,21.17
2019-06-20T14:12:07.684Z,20.73
2019-06-20T14:13:18.771Z,20.55
2019-06-20T14:14:07.670Z,20.35
2019-06-20T14:15:07.655Z,19.98
2019-06-20T14:16:07.630Z,19.91
2019-06-20T14:17:07.618Z,20.39
2019-06-20T14:18:07.605Z,20.57
2019-06-20T14:19:07.597Z,20.42
2019-06-20T14:20:08.356Z,20.14
2019-06-20T14:21:07.562Z,19.84
2019-06-20T14:22:07.573Z,19.76
2019-06-20T14:23:07.544Z,19.65
2019-06-20T14:24:07.525Z,19.76
2019-06-20T14:25:07.537Z,19.63
2019-06-20T14:26:07.514Z,19.95
2019-06-20T14:27:07.485Z,19.80
2019-06-20T14:28:07.475Z,19.62
2019-06-20T14:29:07.468Z,19.63
2019-06-20T14:30:07.460Z,19.77
2019-06-20T14:31:07.433Z,19.76
2019-06-20T14:32:21.494Z,19.80
2019-06-20T14:33:07.406Z,20.02
2019-06-20T14:34:07.423Z,20.02
2019-06-20T14:35:07.415Z,20.35
2019-06-20T14:36:07.363Z,20.21
2019-06-20T14:37:07.353Z,20.35
2019-06-20T14:38:07.338Z,20.26
2019-06-20T14:39:07.330Z,20.13
2019-06-20T14:40:07.346Z,19.96
2019-06-20T14:41:07.328Z,19.77
2019-06-20T14:42:07.286Z,19.65
2019-06-20T14:43:07.274Z,19.71
2019-06-20T14:44:07.259Z,19.66
2019-06-20T14:45:07.261Z,19.58
2019-06-20T14:46:07.245Z,19.55
2019-06-20T14:47:07.218Z,19.65
2019-06-20T14:48:07.212Z,19.58
2019-06-20T14:49:07.192Z,19.61
2019-06-20T14:50:07.194Z,19.51
2019-06-20T14:51:07.164Z,19.56
2019-06-20T14:52:07.153Z,19.50
2019-06-20T14:53:07.219Z,19.51
2019-06-20T14:54:07.133Z,19.59
2019-06-20T14:55:07.159Z,19.74
2019-06-20T14:56:07.097Z,19.84
2019-06-20T14:57:07.084Z,19.74
2019-06-20T14:58:07.086Z,19.80
2019-06-20T14:59:07.055Z,19.77
2019-06-20T15:00:07.042Z,19.73
2019-06-20T15:01:07.039Z,19.96
2019-06-20T15:02:07.017Z,19.99
2019-06-20T15:03:07.001Z,20.08
2019-06-20T15:04:06.988Z,19.99
2019-06-20T15:05:06.991Z,19.95
2019-06-20T15:06:06.955Z,19.96
2019-06-20T15:07:06.942Z,19.96
2019-06-20T15:08:06.935Z,19.77
2019-06-20T15:09:06.916Z,19.76
2019-06-20T15:10:06.917Z,19.76
2019-06-20T15:11:06.888Z,19.78
2019-06-20T15:12:06.874Z,19.91
2019-06-20T15:13:06.861Z,19.99
2019-06-20T15:14:06.848Z,19.76
2019-06-20T15:15:06.859Z,19.83
2019-06-20T15:16:06.824Z,20.06
2019-06-20T15:17:06.803Z,20.39
2019-06-20T15:18:06.791Z,20.58
2019-06-20T15:19:06.777Z,20.72
2019-06-20T15:20:06.795Z,20.77
2019-06-20T15:21:06.754Z,20.76
2019-06-20T15:22:06.762Z,20.77
2019-06-20T15:23:06.728Z,20.28
2019-06-20T15:24:06.730Z,20.18
2019-06-20T15:25:06.738Z,20.14
2019-06-20T15:26:06.693Z,20.03
2019-06-20T15:27:06.670Z,20.08
2019-06-20T15:28:06.652Z,19.95
2019-06-20T15:29:06.639Z,19.74
2019-06-20T15:30:06.627Z,19.73
2019-06-20T15:31:06.626Z,19.56
2019-06-20T15:32:06.600Z,19.56
2019-06-20T15:33:10.281Z,19.32
2019-06-20T15:34:06.581Z,19.19
2019-06-20T15:35:06.570Z,19.07
2019-06-20T15:36:06.560Z,18.98
2019-06-20T15:37:06.559Z,18.78
2019-06-20T15:38:06.529Z,18.58
2019-06-20T15:39:06.509Z,18.41
2019-06-20T15:40:06.487Z,18.45
2019-06-20T15:41:06.494Z,18.37
2019-06-20T15:42:06.492Z,18.63
2019-06-20T15:43:06.450Z,18.69
2019-06-20T15:44:06.433Z,18.60
2019-06-20T15:45:06.422Z,18.48
2019-06-20T15:46:06.421Z,18.57
2019-06-20T15:47:06.392Z,18.51
2019-06-20T15:48:06.369Z,18.44
2019-06-20T15:49:15.726Z,18.51
2019-06-20T15:50:06.346Z,18.55
2019-06-20T15:51:06.367Z,18.69
2019-06-20T15:52:06.311Z,18.76
2019-06-20T15:53:06.298Z,18.78
2019-06-20T15:54:06.298Z,18.92
2019-06-20T15:55:06.267Z,18.90
2019-06-20T15:56:06.269Z,18.91
2019-06-20T15:57:06.237Z,18.98
2019-06-20T15:58:06.233Z,18.92
2019-06-20T15:59:06.220Z,19.07
2019-06-20T16:00:06.194Z,18.95
2019-06-20T16:01:06.216Z,19.10
2019-06-20T16:02:06.172Z,19.13
2019-06-20T16:03:10.261Z,19.19
2019-06-20T16:04:06.139Z,19.39
2019-06-20T16:05:06.127Z,19.46
2019-06-20T16:06:06.147Z,19.33
2019-06-20T16:07:06.112Z,19.47
2019-06-20T16:08:06.083Z,19.71
2019-06-20T16:09:08.567Z,19.56
2019-06-20T16:10:06.056Z,19.54
2019-06-20T16:11:06.032Z,19.59
2019-06-20T16:12:06.032Z,19.59
2019-06-20T16:13:06.007Z,19.69
2019-06-20T16:14:05.991Z,19.83
2019-06-20T16:15:06.002Z,19.62
2019-06-20T16:16:06.000Z,19.59
2019-06-20T16:17:05.961Z,19.65
2019-06-20T16:18:05.931Z,19.55
2019-06-20T16:19:05.920Z,19.54
2019-06-20T16:20:05.904Z,19.54
2019-06-20T16:21:05.890Z,19.33
2019-06-20T16:22:05.891Z,19.48
2019-06-20T16:23:05.861Z,19.33
2019-06-20T16:24:05.847Z,19.22
2019-06-20T16:36:06.542Z,19.25
2019-06-20T16:37:10.066Z,19.36
2019-06-20T16:38:06.481Z,19.41
2019-06-20T16:39:06.474Z,19.56
2019-06-20T16:40:06.455Z,19.65
2019-06-20T16:41:06.434Z,19.58
2019-06-20T16:42:06.432Z,19.55
2019-06-20T16:43:06.402Z,19.56
2019-06-20T16:44:06.389Z,19.59
2019-06-20T16:45:06.389Z,19.59
2019-06-20T16:46:06.358Z,19.68
2019-06-20T16:47:06.357Z,19.92
2019-06-20T16:48:06.328Z,19.91
2019-06-20T16:49:06.357Z,20.02
2019-06-20T16:50:06.312Z,20.10
2019-06-20T16:51:06.286Z,20.21
2019-06-20T16:52:06.287Z,20.36
2019-06-20T16:53:06.269Z,20.36
2019-06-20T16:54:06.240Z,20.42
2019-06-20T16:55:06.227Z,20.36
2019-06-20T16:56:06.221Z,20.33
2019-06-20T16:57:06.213Z,20.33
2019-06-20T16:58:06.183Z,20.47
2019-06-20T16:59:06.170Z,20.48
2019-06-20T17:00:06.157Z,20.33
2019-06-20T17:01:06.140Z,20.42
2019-06-20T17:02:06.159Z,20.29
2019-06-20T17:03:06.118Z,20.77
2019-06-20T17:04:06.108Z,21.56
2019-06-20T17:05:06.083Z,21.61
2019-06-20T17:06:06.068Z,21.37
2019-06-20T17:07:06.071Z,21.25
2019-06-20T17:08:06.045Z,21.03
2019-06-20T17:09:06.032Z,21.01
2019-06-20T17:10:06.016Z,21.09
2019-06-20T17:11:06.009Z,21.01
2019-06-20T17:12:05.994Z,21.10
2019-06-20T17:13:05.991Z,21.06
2019-06-20T17:14:05.965Z,21.04
2019-06-20T17:15:05.985Z,20.89
2019-06-20T17:16:05.934Z,20.85
2019-06-20T17:17:05.925Z,21.06
2019-06-20T17:18:05.924Z,21.12
2019-06-20T17:19:06.000Z,21.24
2019-06-20T17:20:05.881Z,22.10
2019-06-20T17:21:05.871Z,23.51
2019-06-20T17:22:05.875Z,24.83
2019-06-20T17:23:05.863Z,24.90
2019-06-20T17:24:05.831Z,25.61
2019-06-20T17:25:05.826Z,26.28
2019-06-20T17:26:05.810Z,25.36
2019-06-20T17:27:05.808Z,25.27
2019-06-20T17:28:05.804Z,24.91
2019-06-20T17:29:05.778Z,25.42
2019-06-20T17:30:05.879Z,25.65
2019-06-20T17:31:05.809Z,26.10
2019-06-20T17:32:05.754Z,25.70
2019-06-20T17:33:05.777Z,25.47
2019-06-20T17:34:05.736Z,25.69
2019-06-20T17:35:05.731Z,25.91
2019-06-20T17:36:18.003Z,25.62
2019-06-20T17:37:05.715Z,25.92
2019-06-20T17:38:05.721Z,26.23
2019-06-20T17:39:05.719Z,26.58
2019-06-20T17:40:05.696Z,26.01
2019-06-20T17:41:05.695Z,25.17
2019-06-20T17:42:05.678Z,25.55
2019-06-20T17:43:05.688Z,25.20
2019-06-20T17:44:05.663Z,24.98
2019-06-20T17:45:05.657Z,25.27
2019-06-20T17:46:05.664Z,25.38
2019-06-20T17:47:05.644Z,25.99
2019-06-20T17:48:05.653Z,26.12
2019-06-20T17:49:05.660Z,26.66
2019-06-20T17:50:05.629Z,27.02
2019-06-20T17:51:05.645Z,26.89
2019-06-20T17:52:05.614Z,26.37
2019-06-20T17:53:05.609Z,25.51
2019-06-20T17:54:05.615Z,25.05
2019-06-20T17:55:05.599Z,24.91
2019-06-20T17:56:05.590Z,25.08
2019-06-20T17:57:05.583Z,24.61
2019-06-20T17:58:05.583Z,24.46
2019-06-20T17:59:05.585Z,23.85
2019-06-20T18:00:05.573Z,23.53
2019-06-20T18:01:05.579Z,23.31
2019-06-20T18:02:05.554Z,22.82
2019-06-20T18:03:05.549Z,22.28
2019-06-20T18:04:13.653Z,22.00
2019-06-20T18:05:05.543Z,21.38
2019-06-20T18:06:05.581Z,21.27
2019-06-20T18:07:05.520Z,21.12
2019-06-20T18:08:14.608Z,21.25
2019-06-20T18:09:05.515Z,21.24
2019-06-20T18:10:05.491Z,21.17
2019-06-20T18:11:05.484Z,21.25
2019-06-20T18:12:05.540Z,21.29
2019-06-20T18:13:05.473Z,21.22